Time;durP1;ratioP1;P1;durP2;ratioP2;P2;SDS_P1;SDS_P2;PMS_P1;PMS_P2;Temp;Humidity;BMP_temperature;BMP_pressure;BME280_temperature;BME280_humidity;BME280_pressure;Samples;Min_cycle;Max_cycle;Signal;HPM_P1;HPM_P2
2023/08/28 00:02:17;;;;;;;11.57;10.48;;;27.10;96.70;;;;;;5043981;28;20137;-71
2023/08/28 00:04:47;;;;;;;12.15;10.88;;;27.10;96.70;;;;;;5055063;28;20040;-71
2023/08/28 00:07:15;;;;;;;11.45;10.25;;;27.10;96.70;;;;;;5042415;28;20099;-71
2023/08/28 00:09:43;;;;;;;11.80;10.55;;;27.20;96.70;;;;;;5052402;28;20045;-71
2023/08/28 00:12:11;;;;;;;11.38;10.27;;;27.10;96.70;;;;;;5045221;28;20768;-72
2023/08/28 00:14:39;;;;;;;11.63;10.43;;;27.10;96.70;;;;;;5044625;28;20067;-72
2023/08/28 00:17:07;;;;;;;12.85;11.65;;;27.10;96.70;;;;;;5046708;28;20044;-71
2023/08/28 00:19:35;;;;;;;11.70;10.68;;;27.00;96.70;;;;;;5055968;28;20502;-71
2023/08/28 00:22:05;;;;;;;12.52;11.25;;;27.00;96.70;;;;;;5056424;28;20044;-71
2023/08/28 00:24:33;;;;;;;12.75;11.45;;;27.00;96.70;;;;;;5029185;28;20045;-72
2023/08/28 00:27:01;;;;;;;12.75;11.25;;;27.00;96.70;;;;;;5044740;28;20488;-71
2023/08/28 00:29:29;;;;;;;12.18;11.05;;;27.00;96.70;;;;;;5027682;28;20045;-71
2023/08/28 00:31:57;;;;;;;12.27;11.10;;;27.00;96.70;;;;;;5046281;28;20372;-71
2023/08/28 00:34:25;;;;;;;13.20;11.65;;;27.00;96.70;;;;;;5045721;28;20049;-71
2023/08/28 00:36:53;;;;;;;12.52;11.23;;;27.00;96.70;;;;;;5042213;28;20530;-71
2023/08/28 00:39:23;;;;;;;12.18;11.07;;;27.00;96.70;;;;;;5044356;28;20052;-72
2023/08/28 00:41:51;;;;;;;11.65;10.55;;;27.00;96.70;;;;;;5044249;28;20094;-71
2023/08/28 00:44:18;;;;;;;12.98;11.80;;;27.10;96.70;;;;;;5042759;28;20071;-72
2023/08/28 00:46:46;;;;;;;12.50;11.10;;;27.10;96.70;;;;;;5045627;28;20147;-72
2023/08/28 00:49:14;;;;;;;12.48;11.43;;;27.10;96.70;;;;;;5035133;28;20042;-71
2023/08/28 00:51:43;;;;;;;12.30;11.20;;;27.10;96.70;;;;;;5043197;28;20048;-71
2023/08/28 00:54:11;;;;;;;14.02;11.93;;;27.10;96.70;;;;;;5041503;28;20110;-71
2023/08/28 00:56:41;;;;;;;13.05;11.10;;;27.20;96.70;;;;;;5044914;28;20036;-71
2023/08/28 00:59:14;;;;;;;13.48;11.15;;;27.30;96.70;;;;;;5045339;28;20098;-71
2023/08/28 01:01:43;;;;;;;11.98;10.55;;;27.40;96.70;;;;;;5046114;28;20593;-71
2023/08/28 01:04:11;;;;;;;15.65;10.68;;;27.60;96.70;;;;;;5044653;28;20173;-71
2023/08/28 01:06:47;;;;;;;18.20;10.15;;;27.70;96.70;;;;;;5027628;28;20139;-71
2023/08/28 01:09:25;;;;;;;11.55;8.30;;;27.80;96.70;;;;;;5044659;28;20094;-72
2023/08/28 01:12:07;;;;;;;12.10;7.30;;;27.90;96.70;;;;;;5077767;28;20040;-70
2023/08/28 01:14:45;;;;;;;12.15;6.45;;;28.00;96.70;;;;;;5043768;28;20049;-71
2023/08/28 01:17:16;;;;;;;8.43;6.18;;;28.00;96.70;;;;;;5035730;28;20049;-71
2023/08/28 01:19:44;;;;;;;7.30;5.57;;;27.90;96.70;;;;;;5028728;28;20079;-71
2023/08/28 01:22:20;;;;;;;5.82;4.18;;;27.90;96.70;;;;;;5036389;28;20560;-71
2023/08/28 01:24:51;;;;;;;7.78;3.60;;;27.80;96.70;;;;;;5044091;28;20098;-72
2023/08/28 01:27:22;;;;;;;5.78;3.63;;;27.70;96.70;;;;;;5029117;28;20051;-73
2023/08/28 01:30:11;;;;;;;5.95;3.40;;;27.70;96.70;;;;;;5041638;28;20067;-72
2023/08/28 01:32:41;;;;;;;6.00;3.35;;;27.60;96.70;;;;;;5023586;28;20037;-72
2023/08/28 01:35:11;;;;;;;7.45;3.67;;;27.50;96.70;;;;;;5021609;28;20098;-71
2023/08/28 01:38:03;;;;;;;4.90;3.30;;;27.40;96.70;;;;;;5040412;28;20037;-71
2023/08/28 01:40:38;;;;;;;6.15;3.28;;;27.20;96.70;;;;;;5041895;28;20052;-72
2023/08/28 01:43:11;;;;;;;10.43;4.10;;;27.10;96.70;;;;;;5008698;28;20045;-72
2023/08/28 01:45:39;;;;;;;6.70;3.17;;;27.00;96.70;;;;;;5014604;28;20052;-71
2023/08/28 01:48:07;;;;;;;7.18;2.88;;;26.90;96.70;;;;;;5020516;28;20056;-71
2023/08/28 01:50:35;;;;;;;5.45;1.60;;;26.70;96.70;;;;;;5037866;28;20052;-72
2023/08/28 01:53:03;;;;;;;4.68;1.33;;;25.60;96.70;;;;;;5025353;28;20125;-72
2023/08/28 01:56:04;;;;;;;5.72;0.98;;;24.70;96.70;;;;;;5023015;28;20507;-72
2023/08/28 01:58:36;;;;;;;6.60;1.40;;;23.90;96.70;;;;;;5036018;28;20056;-71
2023/08/28 02:01:04;;;;;;;4.20;1.00;;;23.60;96.70;;;;;;5026177;28;20115;-72
2023/08/28 02:03:33;;;;;;;4.05;1.00;;;23.10;96.70;;;;;;5033593;28;20040;-71
2023/08/28 02:06:01;;;;;;;6.07;1.23;;;22.90;96.70;;;;;;5045731;28;20096;-72
2023/08/28 02:08:29;;;;;;;3.58;1.15;;;22.90;96.70;;;;;;5028350;28;20045;-71
2023/08/28 02:10:59;;;;;;;2.70;1.20;;;23.00;96.70;;;;;;5044497;28;20715;-72
2023/08/28 02:13:27;;;;;;;3.58;0.98;;;23.20;96.70;;;;;;5026994;28;20052;-71
2023/08/28 02:15:56;;;;;;;2.83;1.00;;;23.30;96.70;;;;;;5042426;28;20577;-71
2023/08/28 02:18:24;;;;;;;8.25;1.88;;;23.50;96.70;;;;;;5025735;28;20064;-72
2023/08/28 02:20:52;;;;;;;2.60;1.02;;;23.50;96.70;;;;;;5040351;28;20052;-71
2023/08/28 02:23:21;;;;;;;2.88;0.93;;;23.40;96.70;;;;;;5029468;28;20123;-71
2023/08/28 02:25:49;;;;;;;3.40;1.20;;;23.40;96.70;;;;;;5034463;28;20399;-71
2023/08/28 02:28:18;;;;;;;2.17;0.82;;;23.50;96.70;;;;;;5038562;28;20056;-71
2023/08/28 02:30:47;;;;;;;2.97;1.00;;;23.60;96.70;;;;;;5046853;28;20060;-72
2023/08/28 02:33:16;;;;;;;2.65;1.20;;;23.50;96.70;;;;;;5047780;28;20048;-71
2023/08/28 02:35:45;;;;;;;3.85;1.30;;;23.80;96.70;;;;;;5031268;28;20044;-71
2023/08/28 02:38:13;;;;;;;5.75;1.13;;;24.00;96.70;;;;;;5031173;28;20040;-71
2023/08/28 02:40:41;;;;;;;3.63;1.00;;;24.10;96.70;;;;;;5047739;28;20056;-72
2023/08/28 02:43:09;;;;;;;3.45;1.13;;;24.20;96.70;;;;;;5044639;28;20044;-72
2023/08/28 02:45:39;;;;;;;3.45;1.10;;;24.20;96.70;;;;;;5046989;28;20052;-71
2023/08/28 02:48:11;;;;;;;3.38;0.90;;;24.10;96.70;;;;;;5065613;28;20052;-72
2023/08/28 02:50:40;;;;;;;3.13;1.00;;;24.10;96.70;;;;;;5030951;28;20441;-72
2023/08/28 02:53:08;;;;;;;3.35;1.33;;;24.10;96.70;;;;;;5064507;28;20517;-71
2023/08/28 02:55:42;;;;;;;1.95;1.15;;;24.10;96.70;;;;;;5045321;28;20175;-71
2023/08/28 02:58:12;;;;;;;3.63;1.20;;;24.10;96.70;;;;;;5029297;28;20059;-72
2023/08/28 03:00:41;;;;;;;7.00;1.25;;;24.00;96.70;;;;;;5047490;28;20044;-72
2023/08/28 03:03:10;;;;;;;5.22;1.30;;;24.00;96.70;;;;;;5047524;28;20044;-71
2023/08/28 03:05:45;;;;;;;4.18;1.25;;;24.10;96.70;;;;;;5046024;28;20056;-71
2023/08/28 03:08:13;;;;;;;4.15;1.00;;;24.10;96.70;;;;;;5038604;28;20053;-72
2023/08/28 03:10:41;;;;;;;3.25;1.17;;;24.00;96.70;;;;;;5047483;28;20055;-72
2023/08/28 03:13:09;;;;;;;3.78;1.27;;;24.00;96.70;;;;;;5058353;28;20041;-72
2023/08/28 03:15:38;;;;;;;5.70;1.40;;;24.10;96.70;;;;;;5046572;28;20071;-72
2023/08/28 03:18:06;;;;;;;3.47;1.20;;;24.00;96.70;;;;;;5045880;28;20061;-72
2023/08/28 03:20:34;;;;;;;3.15;1.33;;;24.00;96.70;;;;;;5059692;28;20495;-72
2023/08/28 03:23:04;;;;;;;4.50;1.52;;;24.10;96.70;;;;;;5045941;28;20392;-72
2023/08/28 03:25:32;;;;;;;4.93;1.52;;;24.00;96.70;;;;;;5046731;28;20510;-71
2023/08/28 03:28:02;;;;;;;3.20;0.93;;;24.00;96.70;;;;;;5028080;28;20045;-72
2023/08/28 03:30:30;;;;;;;4.75;1.13;;;23.90;96.70;;;;;;5046427;28;20060;-72
2023/08/28 03:32:58;;;;;;;4.13;1.40;;;24.00;96.70;;;;;;5046847;28;20041;-72
2023/08/28 03:35:26;;;;;;;4.63;1.52;;;24.00;96.70;;;;;;5045851;28;20117;-71
2023/08/28 03:37:54;;;;;;;3.85;1.40;;;24.10;96.70;;;;;;5076970;28;20049;-71
2023/08/28 03:40:24;;;;;;;2.80;1.55;;;24.20;96.70;;;;;;5046203;28;20094;-72
2023/08/28 03:42:53;;;;;;;4.28;1.45;;;24.10;96.70;;;;;;5053714;28;20510;-71
2023/08/28 03:45:22;;;;;;;3.60;1.20;;;24.10;96.70;;;;;;5043223;28;20036;-71
2023/08/28 03:47:51;;;;;;;3.70;1.35;;;24.10;96.70;;;;;;5043371;28;20057;-72
2023/08/28 03:50:19;;;;;;;3.60;1.50;;;24.10;96.70;;;;;;5044190;28;20048;-71
2023/08/28 03:52:47;;;;;;;5.50;1.40;;;24.00;96.70;;;;;;5050822;28;20041;-71
2023/08/28 03:55:15;;;;;;;2.33;1.13;;;23.90;96.70;;;;;;5044754;28;20499;-71
2023/08/28 03:57:45;;;;;;;2.42;1.20;;;23.90;96.70;;;;;;5045744;28;20613;-71
2023/08/28 04:00:14;;;;;;;3.63;1.60;;;23.80;96.70;;;;;;5055295;28;20056;-71
2023/08/28 04:02:43;;;;;;;4.65;1.70;;;23.90;96.70;;;;;;5054914;28;20491;-71
2023/08/28 04:05:12;;;;;;;3.47;1.75;;;23.90;96.70;;;;;;5058021;28;20045;-71
2023/08/28 04:07:40;;;;;;;3.22;1.65;;;23.90;96.70;;;;;;5046039;28;20059;-71
2023/08/28 04:10:09;;;;;;;3.40;1.23;;;23.90;96.70;;;;;;5045602;28;20048;-71
2023/08/28 04:12:37;;;;;;;3.35;1.50;;;23.90;96.70;;;;;;5045128;28;20036;-74
2023/08/28 04:15:08;;;;;;;7.63;1.90;;;23.80;96.70;;;;;;5027669;28;20168;-72
2023/08/28 04:17:37;;;;;;;3.05;1.20;;;23.80;96.70;;;;;;5041320;28;20053;-70
2023/08/28 04:20:12;;;;;;;5.63;2.33;;;23.80;96.70;;;;;;5044502;28;20561;-72
2023/08/28 04:22:41;;;;;;;4.40;1.30;;;23.90;96.70;;;;;;5040238;28;20069;-71
2023/08/28 04:25:09;;;;;;;4.18;1.45;;;23.90;96.70;;;;;;5077003;28;20553;-71
2023/08/28 04:27:38;;;;;;;5.78;2.00;;;23.90;96.70;;;;;;5042136;28;20059;-71
2023/08/28 04:30:09;;;;;;;2.13;1.08;;;23.80;96.70;;;;;;5044695;28;20419;-71
2023/08/28 04:32:38;;;;;;;3.95;1.30;;;23.90;96.70;;;;;;5045509;28;20102;-71
2023/08/28 04:35:07;;;;;;;1.77;1.05;;;23.90;96.70;;;;;;5029516;28;20051;-71
2023/08/28 04:37:35;;;;;;;3.83;1.17;;;23.90;96.70;;;;;;5045314;28;20091;-71
2023/08/28 04:40:04;;;;;;;4.82;1.08;;;23.90;96.70;;;;;;5033735;28;20076;-71
2023/08/28 04:42:33;;;;;;;2.22;0.93;;;23.90;96.70;;;;;;5052229;28;20163;-71
2023/08/28 04:45:02;;;;;;;2.15;0.93;;;23.90;96.70;;;;;;5044992;28;20131;-71
2023/08/28 04:47:32;;;;;;;2.75;1.10;;;23.90;96.70;;;;;;5045845;28;20036;-71
2023/08/28 04:50:00;;;;;;;3.35;1.17;;;24.00;96.70;;;;;;5052827;28;20558;-72
2023/08/28 04:52:28;;;;;;;5.00;1.15;;;24.00;96.70;;;;;;5043590;28;20040;-71
2023/08/28 04:54:56;;;;;;;2.88;1.10;;;24.10;96.70;;;;;;5042679;28;20052;-72
2023/08/28 04:57:25;;;;;;;3.75;1.13;;;24.10;96.70;;;;;;5044727;28;20219;-72
2023/08/28 04:59:53;;;;;;;7.15;1.55;;;24.20;96.70;;;;;;5045455;28;20040;-72
2023/08/28 05:02:21;;;;;;;2.45;1.05;;;24.20;96.70;;;;;;5045037;28;20053;-71
2023/08/28 05:04:51;;;;;;;4.82;1.10;;;24.20;96.70;;;;;;5045478;28;20098;-71
2023/08/28 05:07:19;;;;;;;2.53;1.10;;;24.10;96.70;;;;;;5042360;28;20568;-71
2023/08/28 05:09:47;;;;;;;3.72;1.40;;;24.10;96.70;;;;;;5041679;28;20041;-71
2023/08/28 05:12:15;;;;;;;4.10;1.20;;;24.10;96.70;;;;;;5028590;28;20176;-71
2023/08/28 05:14:43;;;;;;;3.00;1.05;;;24.20;96.70;;;;;;5047867;28;20404;-71
2023/08/28 05:17:12;;;;;;;3.40;0.98;;;24.30;96.70;;;;;;5052011;28;20506;-71
2023/08/28 05:19:40;;;;;;;4.03;1.30;;;24.30;96.70;;;;;;5041873;28;20040;-72
2023/08/28 05:22:11;;;;;;;2.70;1.13;;;24.20;96.70;;;;;;5063073;28;20045;-71
2023/08/28 05:24:41;;;;;;;4.85;1.33;;;24.30;96.70;;;;;;5041545;28;20063;-72
2023/08/28 05:27:09;;;;;;;3.50;1.10;;;24.50;96.70;;;;;;5027940;28;20047;-71
2023/08/28 05:29:38;;;;;;;2.80;1.30;;;24.50;96.70;;;;;;5042943;28;20056;-72
2023/08/28 05:32:06;;;;;;;4.10;1.30;;;24.50;96.70;;;;;;5043935;28;20047;-71
2023/08/28 05:34:35;;;;;;;2.20;1.05;;;24.30;96.70;;;;;;5042723;28;21286;-71
2023/08/28 05:37:04;;;;;;;2.50;1.30;;;24.20;96.70;;;;;;5045079;28;20040;-71
2023/08/28 05:39:34;;;;;;;2.40;1.20;;;24.30;96.70;;;;;;5047811;28;20055;-72
2023/08/28 05:42:04;;;;;;;3.53;1.17;;;24.40;96.70;;;;;;5049494;28;20617;-71
2023/08/28 05:44:32;;;;;;;5.38;1.30;;;24.50;96.70;;;;;;5046521;28;20049;-72
2023/08/28 05:47:00;;;;;;;3.65;1.30;;;24.60;96.70;;;;;;5023760;28;20040;-71
2023/08/28 05:49:28;;;;;;;2.85;1.17;;;24.60;96.70;;;;;;5051376;28;20451;-71
2023/08/28 05:51:57;;;;;;;2.85;1.10;;;24.60;96.70;;;;;;5032255;28;20551;-71
2023/08/28 05:54:25;;;;;;;2.75;1.40;;;24.60;96.70;;;;;;5053011;28;20036;-71
2023/08/28 05:56:55;;;;;;;2.85;1.20;;;24.70;96.70;;;;;;5041156;28;20041;-71
2023/08/28 05:59:23;;;;;;;5.40;1.30;;;24.70;96.70;;;;;;5046613;28;20398;-71
2023/08/28 06:01:51;;;;;;;4.32;1.38;;;24.80;96.70;;;;;;5047482;28;20040;-72
2023/08/28 06:04:20;;;;;;;2.55;1.10;;;24.90;96.70;;;;;;5038591;28;20084;-71
2023/08/28 06:06:48;;;;;;;3.38;1.17;;;24.90;96.70;;;;;;5066061;28;20490;-71
2023/08/28 06:09:16;;;;;;;4.30;1.00;;;24.90;96.70;;;;;;5047037;28;20060;-71
2023/08/28 06:11:44;;;;;;;4.68;1.30;;;24.90;96.70;;;;;;5048730;28;20076;-71
2023/08/28 06:14:14;;;;;;;3.60;1.60;;;24.90;96.70;;;;;;5045050;28;20557;-71
2023/08/28 06:16:42;;;;;;;5.13;1.55;;;24.90;96.70;;;;;;5040444;28;20045;-71
2023/08/28 06:19:10;;;;;;;4.90;1.50;;;25.00;96.70;;;;;;5051637;28;20613;-71
2023/08/28 06:21:43;;;;;;;5.00;1.40;;;25.00;96.70;;;;;;5066856;28;20041;-71
2023/08/28 06:24:12;;;;;;;3.97;1.38;;;25.10;96.70;;;;;;5030319;28;20449;-72
2023/08/28 06:26:41;;;;;;;5.57;1.88;;;25.20;96.70;;;;;;5046373;28;20510;-72
2023/08/28 06:29:09;;;;;;;4.22;1.20;;;25.10;96.70;;;;;;5047030;28;20053;-71
2023/08/28 06:31:39;;;;;;;3.70;1.40;;;25.10;96.70;;;;;;5032598;28;20057;-71
2023/08/28 06:34:07;;;;;;;5.88;1.40;;;25.20;96.70;;;;;;5027118;28;20079;-71
2023/08/28 06:36:35;;;;;;;6.05;1.83;;;25.30;96.70;;;;;;5027170;28;20407;-72
2023/08/28 06:39:03;;;;;;;4.00;1.15;;;25.40;96.70;;;;;;5034733;28;20136;-71
2023/08/28 06:41:31;;;;;;;5.43;1.40;;;25.50;96.70;;;;;;5018089;28;20046;-71
2023/08/28 06:44:05;;;;;;;5.35;1.65;;;25.50;96.70;;;;;;5008119;28;20099;-71
2023/08/28 06:46:33;;;;;;;6.32;1.90;;;25.50;96.70;;;;;;5028106;28;20041;-72
2023/08/28 06:49:03;;;;;;;3.85;1.33;;;25.60;96.70;;;;;;5021404;28;20053;-73
2023/08/28 06:51:31;;;;;;;4.88;1.42;;;25.60;96.70;;;;;;5034698;28;20077;-73
2023/08/28 06:54:00;;;;;;;5.55;1.52;;;25.60;96.70;;;;;;5039028;28;20046;-73
2023/08/28 06:56:29;;;;;;;6.70;1.55;;;25.70;96.70;;;;;;5016990;28;20407;-73
2023/08/28 06:58:58;;;;;;;6.45;1.63;;;25.70;96.70;;;;;;5026075;28;20046;-73
2023/08/28 07:01:26;;;;;;;5.20;1.67;;;25.70;96.70;;;;;;5024888;28;20061;-72
2023/08/28 07:03:54;;;;;;;6.40;1.77;;;25.70;96.70;;;;;;5022504;28;20554;-73
2023/08/28 07:06:23;;;;;;;9.82;2.05;;;25.80;96.70;;;;;;5016236;28;20144;-74
2023/08/28 07:08:52;;;;;;;6.93;1.55;;;25.90;96.70;;;;;;5025491;28;20046;-73
2023/08/28 07:11:20;;;;;;;7.20;1.80;;;25.90;96.70;;;;;;5027120;28;20053;-73
2023/08/28 07:13:48;;;;;;;6.20;1.83;;;25.90;96.70;;;;;;5029122;28;20053;-73
2023/08/28 07:16:16;;;;;;;4.97;1.60;;;26.00;96.70;;;;;;5040770;28;20045;-73
2023/08/28 07:18:44;;;;;;;5.97;2.08;;;26.10;96.70;;;;;;5044153;28;20041;-73
2023/08/28 07:21:12;;;;;;;10.90;1.90;;;25.90;96.70;;;;;;5026293;28;20065;-73
2023/08/28 07:23:41;;;;;;;6.20;1.60;;;25.90;96.70;;;;;;5031569;28;20037;-73
2023/08/28 07:26:09;;;;;;;7.22;1.65;;;25.90;96.70;;;;;;5040435;28;20045;-73
2023/08/28 07:28:37;;;;;;;6.60;1.70;;;25.90;96.70;;;;;;5040475;28;20502;-74
2023/08/28 07:31:05;;;;;;;7.82;2.10;;;26.00;96.70;;;;;;5035062;28;20457;-73
2023/08/28 07:33:33;;;;;;;8.35;1.90;;;26.00;96.70;;;;;;5044961;28;20048;-74
2023/08/28 07:36:01;;;;;;;8.43;1.75;;;26.20;96.70;;;;;;5025268;28;20056;-72
2023/08/28 07:38:29;;;;;;;7.60;1.63;;;26.20;96.70;;;;;;5019713;28;20381;-74
2023/08/28 07:40:58;;;;;;;11.88;1.90;;;26.10;96.70;;;;;;5031511;28;20106;-73
2023/08/28 07:43:27;;;;;;;6.13;2.00;;;26.20;96.70;;;;;;5033318;28;20029;-74
2023/08/28 07:45:55;;;;;;;3.72;1.27;;;26.10;96.70;;;;;;5025355;28;20046;-73
2023/08/28 07:48:23;;;;;;;8.25;1.60;;;26.20;96.70;;;;;;5007357;28;20045;-73
2023/08/28 07:50:51;;;;;;;6.25;1.95;;;26.30;96.70;;;;;;5038255;28;20125;-72
2023/08/28 07:53:21;;;;;;;5.47;1.65;;;26.30;96.70;;;;;;5038014;28;20053;-73
2023/08/28 07:55:49;;;;;;;7.00;1.83;;;26.30;96.70;;;;;;5029612;28;20049;-72
2023/08/28 07:58:18;;;;;;;4.72;1.75;;;26.30;96.70;;;;;;5025067;28;20049;-73
2023/08/28 08:00:46;;;;;;;5.93;1.45;;;26.40;96.70;;;;;;5018363;28;20289;-74
2023/08/28 08:03:18;;;;;;;5.72;1.63;;;26.50;96.70;;;;;;5024164;28;20044;-74
2023/08/28 08:05:45;;;;;;;5.10;1.20;;;26.60;96.70;;;;;;5042699;28;20047;-72
2023/08/28 08:08:14;;;;;;;6.88;1.60;;;26.70;96.70;;;;;;5035640;28;20570;-72
2023/08/28 08:10:42;;;;;;;6.70;1.83;;;26.60;96.70;;;;;;5028131;28;20120;-73
2023/08/28 08:13:10;;;;;;;7.35;1.63;;;26.70;96.70;;;;;;5024898;28;20124;-73
2023/08/28 08:15:42;;;;;;;6.45;1.70;;;26.60;96.70;;;;;;5031722;28;20037;-74
2023/08/28 08:18:10;;;;;;;4.88;1.55;;;26.60;96.70;;;;;;5023805;28;20052;-73
2023/08/28 08:20:38;;;;;;;6.32;1.55;;;26.70;96.70;;;;;;5038044;28;20541;-74
2023/08/28 08:23:06;;;;;;;5.32;1.40;;;26.70;96.70;;;;;;5028553;28;20081;-73
2023/08/28 08:25:34;;;;;;;6.35;1.75;;;26.80;96.70;;;;;;5023454;28;20511;-72
2023/08/28 08:28:03;;;;;;;6.07;1.70;;;26.80;96.70;;;;;;5021821;28;20593;-72
2023/08/28 08:30:31;;;;;;;5.25;1.50;;;26.80;96.70;;;;;;5039866;28;20118;-72
2023/08/28 08:33:00;;;;;;;4.63;1.48;;;26.90;96.70;;;;;;5039569;28;20068;-72
2023/08/28 08:35:29;;;;;;;6.00;1.77;;;27.00;96.70;;;;;;5032959;28;20056;-73
2023/08/28 08:37:57;;;;;;;5.60;1.58;;;27.10;96.70;;;;;;5032227;28;20104;-73
2023/08/28 08:40:26;;;;;;;7.35;1.60;;;27.20;96.70;;;;;;5021090;28;20439;-72
2023/08/28 08:42:54;;;;;;;4.28;1.60;;;27.30;96.70;;;;;;5024324;28;20034;-72
2023/08/28 08:45:27;;;;;;;3.28;1.48;;;27.30;96.70;;;;;;5027520;28;20045;-73
2023/08/28 08:47:59;;;;;;;5.13;1.58;;;27.30;96.70;;;;;;5043954;28;20388;-73
2023/08/28 08:50:28;;;;;;;6.22;1.35;;;27.40;96.70;;;;;;5042112;28;20053;-72
2023/08/28 08:52:58;;;;;;;6.03;1.83;;;27.50;96.70;;;;;;5024641;28;20046;-72
2023/08/28 08:55:38;;;;;;;3.38;1.38;;;27.40;96.70;;;;;;5022699;28;20053;-72
2023/08/28 08:58:11;;;;;;;4.15;1.63;;;27.40;96.70;;;;;;5022846;28;20588;-72
2023/08/28 09:00:43;;;;;;;3.85;1.38;;;27.50;96.70;;;;;;5024365;28;20041;-72
2023/08/28 09:03:14;;;;;;;3.03;1.45;;;27.70;96.70;;;;;;5024183;28;20072;-73
2023/08/28 09:05:44;;;;;;;7.28;1.42;;;27.80;96.70;;;;;;5023986;28;20049;-72
2023/08/28 09:08:14;;;;;;;9.90;2.15;;;27.80;96.70;;;;;;5023785;28;20049;-73
2023/08/28 09:10:45;;;;;;;8.52;2.00;;;27.80;96.70;;;;;;5023317;28;20045;-73
2023/08/28 09:13:13;;;;;;;4.22;1.33;;;27.50;96.70;;;;;;5023772;28;20041;-74
2023/08/28 09:15:41;;;;;;;7.75;1.77;;;27.50;96.70;;;;;;5025401;28;20153;-73
2023/08/28 09:18:09;;;;;;;15.52;2.10;;;27.50;96.70;;;;;;5023984;28;20049;-72
2023/08/28 09:20:37;;;;;;;18.60;3.50;;;27.50;96.70;;;;;;5038948;28;20091;-72
2023/08/28 09:23:06;;;;;;;4.38;1.67;;;27.60;96.70;;;;;;5040812;28;20045;-72
2023/08/28 09:25:35;;;;;;;2.92;1.15;;;27.70;96.70;;;;;;5043751;28;20037;-72
2023/08/28 09:28:05;;;;;;;6.65;1.88;;;27.60;96.70;;;;;;5038401;28;20037;-72
2023/08/28 09:30:37;;;;;;;14.07;2.03;;;27.60;96.70;;;;;;5033506;28;20651;-72
2023/08/28 09:33:06;;;;;;;5.95;1.30;;;27.70;96.70;;;;;;5043612;28;20060;-72
2023/08/28 09:35:37;;;;;;;5.40;1.40;;;28.00;96.70;;;;;;5043332;28;20091;-73
2023/08/28 09:38:08;;;;;;;3.63;1.20;;;28.20;96.70;;;;;;5041646;28;20717;-72
2023/08/28 09:40:37;;;;;;;4.13;1.05;;;28.40;96.70;;;;;;5043542;28;20045;-72
2023/08/28 09:43:12;;;;;;;9.05;1.55;;;28.50;96.70;;;;;;5042912;28;20064;-72
2023/08/28 09:45:41;;;;;;;21.42;3.42;;;28.70;96.70;;;;;;5043459;28;20045;-73
2023/08/28 09:48:10;;;;;;;4.40;1.20;;;28.60;96.70;;;;;;5042002;28;20496;-73
2023/08/28 09:50:40;;;;;;;7.07;1.67;;;28.50;96.70;;;;;;5041706;28;20056;-71
2023/08/28 09:53:10;;;;;;;5.22;1.30;;;28.50;96.70;;;;;;5021519;28;20045;-71
2023/08/28 09:55:39;;;;;;;5.68;1.30;;;28.40;96.70;;;;;;5071784;28;20498;-73
2023/08/28 09:58:11;;;;;;;6.30;1.77;;;28.30;96.70;;;;;;5042185;28;20041;-72
2023/08/28 10:00:40;;;;;;;4.97;1.42;;;28.30;96.70;;;;;;5040004;28;20098;-71
2023/08/28 10:03:09;;;;;;;5.50;1.33;;;28.40;96.70;;;;;;5042795;28;20098;-72
2023/08/28 10:05:39;;;;;;;3.50;1.20;;;28.40;96.70;;;;;;5041331;28;20071;-72
2023/08/28 10:08:10;;;;;;;2.97;1.20;;;28.30;96.70;;;;;;5042526;28;20100;-72
2023/08/28 10:10:42;;;;;;;3.95;1.20;;;28.40;96.70;;;;;;5043398;28;20118;-73
2023/08/28 10:13:14;;;;;;;4.30;1.02;;;28.50;96.70;;;;;;5041730;28;20076;-72
2023/08/28 10:15:49;;;;;;;5.47;1.38;;;28.40;96.70;;;;;;5043413;28;20135;-72
2023/08/28 10:18:24;;;;;;;7.20;1.50;;;28.20;96.70;;;;;;5041615;28;20049;-72
2023/08/28 10:20:53;;;;;;;4.40;0.85;;;28.20;96.70;;;;;;5040568;28;20063;-72
2023/08/28 10:23:25;;;;;;;5.40;1.30;;;28.40;96.70;;;;;;5043268;28;20072;-72
2023/08/28 10:25:54;;;;;;;4.72;1.60;;;28.80;96.70;;;;;;5045613;28;20044;-72
2023/08/28 10:28:24;;;;;;;3.75;1.17;;;28.70;96.70;;;;;;5046602;28;20058;-75
2023/08/28 10:30:57;;;;;;;3.47;0.70;;;28.60;96.70;;;;;;5044111;28;20084;-76
2023/08/28 10:33:25;;;;;;;3.42;1.23;;;28.80;96.70;;;;;;5046788;28;20071;-76
2023/08/28 10:35:54;;;;;;;3.33;1.20;;;28.80;96.70;;;;;;5047059;28;20037;-75
2023/08/28 10:38:27;;;;;;;5.88;1.40;;;29.00;96.70;;;;;;5044465;28;20644;-75
2023/08/28 10:40:59;;;;;;;4.45;1.20;;;29.00;96.70;;;;;;5019065;28;20052;-75
2023/08/28 10:43:28;;;;;;;4.93;1.60;;;29.00;96.70;;;;;;5026426;28;20121;-75
2023/08/28 10:45:59;;;;;;;6.50;1.55;;;28.80;96.70;;;;;;5039772;28;20049;-75
2023/08/28 10:48:28;;;;;;;5.38;1.40;;;28.90;96.70;;;;;;5045088;28;20084;-74
2023/08/28 10:50:57;;;;;;;4.25;1.08;;;29.40;96.70;;;;;;5028618;28;20048;-74
2023/08/28 10:53:27;;;;;;;5.43;1.27;;;29.40;96.70;;;;;;5041831;28;20451;-74
2023/08/28 10:55:56;;;;;;;2.45;0.90;;;29.20;96.70;;;;;;5044783;28;20484;-77
2023/08/28 10:58:28;;;;;;;5.20;1.75;;;29.10;96.70;;;;;;5034417;28;20122;-77
2023/08/28 11:01:14;;;;;;;4.35;1.67;;;28.90;96.70;;;;;;5029444;28;20041;-77
2023/08/28 11:04:15;;;;;;;5.15;1.10;;;28.90;96.70;;;;;;5026059;28;20106;-76
2023/08/28 11:06:44;;;;;;;5.35;1.05;;;28.70;96.70;;;;;;5041420;28;20140;-76
2023/08/28 11:09:33;;;;;;;3.00;1.08;;;28.70;96.70;;;;;;5027478;28;20045;-76
2023/08/28 11:12:23;;;;;;;4.63;1.23;;;28.80;96.70;;;;;;5043725;28;20053;-77
2023/08/28 11:15:24;;;;;;;3.33;0.80;;;28.90;96.70;;;;;;4941360;28;20051;-76
2023/08/28 11:18:14;;;;;;;5.93;1.20;;;29.20;96.70;;;;;;4964385;28;20085;-77
2023/08/28 11:20:45;;;;;;;4.38;1.27;;;29.50;96.70;;;;;;4945073;28;20058;-77
2023/08/28 11:23:23;;;;;;;3.67;1.13;;;29.30;96.70;;;;;;4946915;28;20051;-77
2023/08/28 11:25:53;;;;;;;4.68;1.30;;;29.20;96.70;;;;;;4964049;28;20061;-77
2023/08/28 11:28:26;;;;;;;9.55;1.98;;;29.50;96.70;;;;;;4947909;28;20137;-77
2023/08/28 11:30:59;;;;;;;10.02;1.77;;;29.70;96.70;;;;;;4963568;28;20150;-76
2023/08/28 11:33:37;;;;;;;11.05;2.20;;;29.90;96.70;;;;;;5024541;28;20126;-77
2023/08/28 11:36:07;;;;;;;6.18;1.55;;;29.80;96.70;;;;;;5045588;28;20048;-76
2023/08/28 11:38:36;;;;;;;11.35;1.55;;;30.00;96.70;;;;;;5045081;28;20073;-77
2023/08/28 11:41:08;;;;;;;4.38;1.67;;;30.30;96.70;;;;;;5044989;28;20053;-77
2023/08/28 11:43:37;;;;;;;5.28;2.08;;;30.50;96.70;;;;;;5043858;28;20123;-77
2023/08/28 11:46:06;;;;;;;12.75;1.88;;;29.90;96.70;;;;;;5045312;28;20487;-77
2023/08/28 11:48:36;;;;;;;6.55;1.80;;;30.00;96.70;;;;;;5045385;28;20041;-76
2023/08/28 11:51:07;;;;;;;4.65;1.38;;;30.10;96.70;;;;;;5043780;28;20424;-76
2023/08/28 11:53:37;;;;;;;6.70;1.50;;;30.10;96.70;;;;;;5039770;28;20049;-77
2023/08/28 11:56:08;;;;;;;5.43;1.52;;;30.10;96.70;;;;;;5048651;28;20099;-77
2023/08/28 11:58:39;;;;;;;8.68;1.83;;;30.30;96.70;;;;;;5044324;28;20041;-74
2023/08/28 12:01:08;;;;;;;7.25;1.60;;;30.30;96.70;;;;;;5024148;28;20059;-77
2023/08/28 12:03:39;;;;;;;6.43;1.52;;;30.30;96.70;;;;;;5019606;28;20079;-77
2023/08/28 12:06:09;;;;;;;9.15;1.73;;;30.30;96.70;;;;;;5044932;28;20045;-77
2023/08/28 12:08:39;;;;;;;4.97;1.30;;;30.10;96.70;;;;;;5041872;28;20041;-77
2023/08/28 12:11:10;;;;;;;5.57;1.45;;;29.60;96.70;;;;;;5039097;28;20840;-78
2023/08/28 12:13:41;;;;;;;5.20;1.60;;;29.60;96.70;;;;;;5026399;28;20046;-79
2023/08/28 12:16:17;;;;;;;4.68;1.48;;;29.40;96.70;;;;;;5043885;28;20044;-77
2023/08/28 12:18:47;;;;;;;5.15;0.90;;;27.80;96.70;;;;;;5036335;28;20064;-77
2023/08/28 12:21:20;;;;;;;4.78;1.00;;;27.00;96.70;;;;;;5039610;28;20144;-78
2023/08/28 12:23:51;;;;;;;3.92;1.20;;;26.70;96.70;;;;;;5029984;28;20508;-78
2023/08/28 12:26:23;;;;;;;4.32;1.10;;;26.90;96.70;;;;;;5042313;28;20075;-77
2023/08/28 12:28:52;;;;;;;5.57;1.10;;;27.00;96.70;;;;;;5036170;28;20045;-77
2023/08/28 12:31:27;;;;;;;2.95;1.15;;;27.40;96.70;;;;;;5055653;28;20687;-76
2023/08/28 12:33:56;;;;;;;4.68;0.70;;;27.60;96.70;;;;;;5046426;28;20040;-77
2023/08/28 12:36:35;;;;;;;3.15;0.95;;;27.90;96.70;;;;;;5045720;28;20455;-79
2023/08/28 12:39:05;;;;;;;3.28;0.82;;;28.00;96.70;;;;;;5046359;28;20256;-79
2023/08/28 12:41:36;;;;;;;2.17;0.60;;;27.60;96.70;;;;;;5064217;28;20048;-77
2023/08/28 12:44:05;;;;;;;3.00;0.95;;;27.20;96.70;;;;;;5040982;28;20075;-77
2023/08/28 12:46:33;;;;;;;3.55;0.80;;;27.30;96.70;;;;;;5063646;28;20043;-78
2023/08/28 12:49:03;;;;;;;2.22;0.80;;;27.10;96.70;;;;;;5059663;28;20127;-77
2023/08/28 12:51:31;;;;;;;2.05;0.45;;;27.20;96.70;;;;;;5043695;28;20052;-77
2023/08/28 12:54:00;;;;;;;3.70;0.68;;;27.50;96.70;;;;;;5063057;28;20052;-76
2023/08/28 12:56:28;;;;;;;2.58;0.90;;;27.70;96.70;;;;;;5045309;28;20386;-77
2023/08/28 12:58:58;;;;;;;1.40;0.30;;;27.80;96.70;;;;;;5062944;28;20122;-77
2023/08/28 13:01:26;;;;;;;2.47;0.50;;;27.80;96.70;;;;;;5073974;28;20605;-77